Portada
METAR-TAF:

METAR-TAF

Aeropuertos :

Aeropuerto Internacional de Heraclión Nikos Kazantzakis

Heraklion, Grecia

latitud: 35-20N, longitud: 025-11E, altitud: 37 m

Observación

El informe se hizo hace 35 minutos, a las 11:20 UTC
Viento 14 kt del noroeste
Temperatura 32°C
Humedad 56%
Presión 1006 hPa
Visibilidad 10 km o más
sin nubes por debajo de 1500 m y sin presencia de cumulonimbus.

METAR: LGIR 231120Z 32014KT CAVOK 32/22 Q1006 NOSIG

Hora: 14:55 (11:55 UTC)

Pronóstico

El informe se hizo hace 55 minutos, a las 11:00 UTC
Pronóstico válido del 23 a las 12 UTC al 24 a las 12 UTC
Viento 15 kt del noroeste
Visibilidad 10 km o más
Escasas nubes a una altura de 2500 ft
Temporalmente
del 23 a las 12 UTC al 23 a las 18 UTC
Viento 15 kt del norte-noroeste con ráfagas de 25 kt

TAF: LGIR 231100Z 2312/2412 32015KT 9999 FEW025 TEMPO 2312/2318 33015G25KT

Observaciones y pronósticos meteorológicos de más de 4000 aeropuertos (mensajes METAR y TAF).

Los puntos amarillos y rojos representan las estaciones disponibles.

Ponga el ratón en el punto deseado para ver el nombre de la estación.

Haga clic para ver las observaciones y los pronósticos meteorológicos.

Para cambiar el mapa : haga clic en los botones verdes con una cruz de color negro para hacer un zoom, en el botón verde con un guión para alejar o en las flechas verdes para mapas adyacentes.


METAR-TAF: